This is the latest recevied weather packets stored in our database for station/object WW5JC. If no packets are shown the sender has not sent any weather packets the latest 1 day(s).
| Time | Temp. | Humidity | Pressure | Rain* | Wind** | Luminosity | Snow |
|---|---|---|---|---|---|---|---|
| 1778019165 | 27.22° C | 79% | 1005.9 hPa | 0 mm | 2.68 m/s, 209° | 158 W/m² | - |
| 1778018861 | 27.22° C | 78% | 1005.9 hPa | 0 mm | 2.24 m/s, 197° | 171 W/m² | - |
| 1778018559 | 27.22° C | 78% | 1006.1 hPa | 0 mm | 2.68 m/s, 202° | 197 W/m² | - |
| 1778018258 | 27.22° C | 77% | 1006.1 hPa | 0 mm | 3.13 m/s, 205° | 197 W/m² | - |
| 1778017955 | 27.22° C | 77% | 1006.2 hPa | 0 mm | 4.02 m/s, 215° | 152 W/m² | - |
| 1778017653 | 27.78° C | 77% | 1006.1 hPa | 0 mm | 3.13 m/s, 230° | 182 W/m² | - |
| 1778017350 | 27.78° C | 77% | 1006.1 hPa | 0 mm | 2.24 m/s, 188° | 404 W/m² | - |
| 1778017047 | 27.78° C | 76% | 1006.1 hPa | 0 mm | 2.68 m/s, 181° | 226 W/m² | - |
| 1778016744 | 27.78° C | 76% | 1006.1 hPa | 0 mm | 4.02 m/s, 186° | 366 W/m² | - |
| 1778016440 | 27.78° C | 76% | 1006.1 hPa | 0 mm | 1.79 m/s, 180° | 626 W/m² | - |
| 1778016137 | 27.78° C | 77% | 1006.2 hPa | 0 mm | 2.24 m/s, 187° | 291 W/m² | - |
| 1778015835 | 27.78° C | 76% | 1006.4 hPa | 0 mm | 1.79 m/s, 188° | 251 W/m² | - |
| 1778015532 | 27.22° C | 79% | 1006.3 hPa | 0 mm | 0.89 m/s, 214° | 322 W/m² | - |
| 1778015228 | 27.22° C | 78% | 1006.3 hPa | 0 mm | 1.34 m/s, 208° | 250 W/m² | - |
| 1778014925 | 27.22° C | 77% | 1006.3 hPa | 0 mm | 1.79 m/s, 203° | 192 W/m² | - |
| 1778014622 | 27.22° C | 78% | 1006.4 hPa | 0 mm | 4.02 m/s, 195° | 275 W/m² | - |
| 1778014320 | 27.78° C | 77% | 1006.5 hPa | 0 mm | 3.13 m/s, 187° | 345 W/m² | - |
| 1778014011 | 27.78° C | 77% | 1006.4 hPa | 0 mm | 0.89 m/s, 182° | 755 W/m² | - |
| 1778013709 | 27.22° C | 79% | 1006.7 hPa | 0 mm | 2.24 m/s, 185° | 229 W/m² | - |
| 1778013406 | 27.22° C | 79% | 1006.6 hPa | 0 mm | 1.79 m/s, 191° | 297 W/m² | - |
| 1778013102 | 27.22° C | 78% | 1006.5 hPa | 0 mm | 2.24 m/s, 191° | 380 W/m² | - |
| 1778012797 | 26.67° C | 79% | 1006.5 hPa | 0 mm | 4.02 m/s, 189° | 544 W/m² | - |
| 1778012494 | 26.67° C | 78% | 1006.6 hPa | 0 mm | 3.58 m/s, 184° | 337 W/m² | - |
| 1778012185 | 26.67° C | 79% | 1006.7 hPa | 0 mm | 2.24 m/s, 198° | 167 W/m² | - |
| 1778011883 | 26.67° C | 79% | 1006.8 hPa | 0 mm | 3.13 m/s, 178° | 199 W/m² | - |
* Rain latest hour (hover to see other rain measurements)
** Current wind speed in m/s (hover to see current wind gust speed)